sensor_id;sensor_type;location;lat;lon;timestamp;pressure;altitude;pressure_sealevel;temperature;humidity
7309;BME280;3695;53.330;9.876;2022-08-04T00:01:08;159649.34;;;22.79;100.00
7309;BME280;3695;53.330;9.876;2022-08-04T00:03:42;159638.84;;;22.75;100.00
7309;BME280;3695;53.330;9.876;2022-08-04T00:06:13;159654.66;;;22.81;100.00
7309;BME280;3695;53.330;9.876;2022-08-04T00:08:48;159646.72;;;22.78;100.00
7309;BME280;3695;53.330;9.876;2022-08-04T00:11:20;159684.81;;;22.92;100.00
7309;BME280;3695;53.330;9.876;2022-08-04T00:13:51;159686.13;;;22.93;100.00
7309;BME280;3695;53.330;9.876;2022-08-04T00:16:21;159648.03;;;22.78;100.00
7309;BME280;3695;53.330;9.876;2022-08-04T00:18:57;159650.66;;;22.79;100.00
7309;BME280;3695;53.330;9.876;2022-08-04T00:21:25;159682.19;;;22.91;100.00
7309;BME280;3695;53.330;9.876;2022-08-04T00:23:54;159684.81;;;22.92;100.00
7309;BME280;3695;53.330;9.876;2022-08-04T00:26:21;159667.75;;;22.86;100.00
7309;BME280;3695;53.330;9.876;2022-08-04T00:28:49;159658.59;;;22.82;100.00
7309;BME280;3695;53.330;9.876;2022-08-04T00:31:16;159662.50;;;22.84;100.00
7309;BME280;3695;53.330;9.876;2022-08-04T00:33:44;159659.91;;;22.83;100.00
7309;BME280;3695;53.330;9.876;2022-08-04T00:36:13;159669.06;;;22.86;100.00
7309;BME280;3695;53.330;9.876;2022-08-04T00:38:40;159680.88;;;22.91;100.00
7309;BME280;3695;53.330;9.876;2022-08-04T00:41:15;159662.50;;;22.84;100.00
7309;BME280;3695;53.330;9.876;2022-08-04T00:43:55;159645.41;;;22.77;100.00
7309;BME280;3695;53.330;9.876;2022-08-04T00:46:38;159651.97;;;22.80;100.00
7309;BME280;3695;53.330;9.876;2022-08-04T00:49:32;159606.03;;;22.62;100.00
7309;BME280;3695;53.330;9.876;2022-08-04T00:52:17;159632.31;;;22.72;100.00
7309;BME280;3695;53.330;9.876;2022-08-04T00:54:59;159620.44;;;22.68;100.00
7309;BME280;3695;53.330;9.876;2022-08-04T00:57:31;159633.63;;;22.73;100.00
7309;BME280;3695;53.330;9.876;2022-08-04T01:00:09;159577.19;;;22.51;100.00
7309;BME280;3695;53.330;9.876;2022-08-04T01:02:41;159602.09;;;22.60;100.00
7309;BME280;3695;53.330;9.876;2022-08-04T01:05:20;159620.44;;;22.68;100.00
7309;BME280;3695;53.330;9.876;2022-08-04T01:08:09;159607.34;;;22.62;100.00
7309;BME280;3695;53.330;9.876;2022-08-04T01:10:47;159558.81;;;22.44;100.00
7309;BME280;3695;53.330;9.876;2022-08-04T01:13:33;159575.88;;;22.50;100.00
7309;BME280;3695;53.330;9.876;2022-08-04T01:16:05;159586.38;;;22.54;100.00
7309;BME280;3695;53.330;9.876;2022-08-04T01:18:39;159575.88;;;22.50;100.00
7309;BME280;3695;53.330;9.876;2022-08-04T01:21:39;159604.72;;;22.61;100.00
7309;BME280;3695;53.330;9.876;2022-08-04T01:24:27;159554.91;;;22.42;100.00
7309;BME280;3695;53.330;9.876;2022-08-04T01:27:00;159550.97;;;22.41;100.00
7309;BME280;3695;53.330;9.876;2022-08-04T01:29:30;159539.16;;;22.36;100.00
7309;BME280;3695;53.330;9.876;2022-08-04T01:32:02;159520.81;;;22.29;100.00
7309;BME280;3695;53.330;9.876;2022-08-04T01:34:34;159507.69;;;22.24;100.00
7309;BME280;3695;53.330;9.876;2022-08-04T01:37:10;159484.06;;;22.15;100.00
7309;BME280;3695;53.330;9.876;2022-08-04T01:39:43;159461.75;;;22.06;100.00
7309;BME280;3695;53.330;9.876;2022-08-04T01:42:10;159449.91;;;22.02;100.00
7309;BME280;3695;53.330;9.876;2022-08-04T01:44:39;159453.91;;;22.03;100.00
7309;BME280;3695;53.330;9.876;2022-08-04T01:47:07;159463.06;;;22.07;100.00
7309;BME280;3695;53.330;9.876;2022-08-04T01:49:36;159431.56;;;21.94;100.00
7309;BME280;3695;53.330;9.876;2022-08-04T01:52:06;159384.38;;;21.76;100.00
7309;BME280;3695;53.330;9.876;2022-08-04T01:54:36;159363.38;;;21.68;100.00
7309;BME280;3695;53.330;9.876;2022-08-04T01:57:04;159368.63;;;21.70;100.00
7309;BME280;3695;53.330;9.876;2022-08-04T01:59:30;159372.53;;;21.72;100.00
7309;BME280;3695;53.330;9.876;2022-08-04T02:02:00;159329.28;;;21.55;100.00
7309;BME280;3695;53.330;9.876;2022-08-04T02:04:26;159312.25;;;21.48;100.00
7309;BME280;3695;53.330;9.876;2022-08-04T02:07:02;159291.28;;;21.40;100.00
7309;BME280;3695;53.330;9.876;2022-08-04T02:09:37;159303.09;;;21.45;100.00
7309;BME280;3695;53.330;9.876;2022-08-04T02:12:11;159317.50;;;21.50;100.00
7309;BME280;3695;53.330;9.876;2022-08-04T02:14:46;159291.28;;;21.40;100.00
7309;BME280;3695;53.330;9.876;2022-08-04T02:17:22;159301.78;;;21.44;100.00
7309;BME280;3695;53.330;9.876;2022-08-04T02:20:00;159284.75;;;21.38;100.00
7309;BME280;3695;53.330;9.876;2022-08-04T02:22:32;159303.09;;;21.45;100.00
7309;BME280;3695;53.330;9.876;2022-08-04T02:25:04;159255.69;;;21.27;100.00
7309;BME280;3695;53.330;9.876;2022-08-04T02:27:39;159267.53;;;21.32;100.00
7309;BME280;3695;53.330;9.876;2022-08-04T02:30:10;159284.75;;;21.38;100.00
7309;BME280;3695;53.330;9.876;2022-08-04T02:32:39;159268.84;;;21.32;100.00
7309;BME280;3695;53.330;9.876;2022-08-04T02:35:13;158712.78;;;21.08;100.00
7309;BME280;3695;53.330;9.876;2022-08-04T02:37:46;158829.69;;;21.12;100.00
7309;BME280;3695;53.330;9.876;2022-08-04T02:40:17;158921.03;;;21.18;100.00
7309;BME280;3695;53.330;9.876;2022-08-04T02:42:45;158675.44;;;21.13;100.00
7309;BME280;3695;53.330;9.876;2022-08-04T02:45:12;158276.22;;;21.06;100.00
7309;BME280;3695;53.330;9.876;2022-08-04T02:47:43;158186.38;;;21.07;100.00
7309;BME280;3695;53.330;9.876;2022-08-04T02:50:13;158339.84;;;21.10;100.00
7309;BME280;3695;53.330;9.876;2022-08-04T02:52:40;158239.59;;;21.07;100.00
7309;BME280;3695;53.330;9.876;2022-08-04T02:55:09;157556.56;;;20.92;100.00
7309;BME280;3695;53.330;9.876;2022-08-04T02:57:38;157435.97;;;20.93;100.00
7309;BME280;3695;53.330;9.876;2022-08-04T03:00:07;157987.53;;;21.07;100.00
7309;BME280;3695;53.330;9.876;2022-08-04T03:02:53;157408.19;;;20.92;100.00
7309;BME280;3695;53.330;9.876;2022-08-04T03:05:24;156614.34;;;20.73;100.00
7309;BME280;3695;53.330;9.876;2022-08-04T03:08:13;157651.88;;;21.05;100.00
7309;BME280;3695;53.330;9.876;2022-08-04T03:11:08;157276.81;;;20.91;100.00
7309;BME280;3695;53.330;9.876;2022-08-04T03:14:04;157355.03;;;20.98;100.00
7309;BME280;3695;53.330;9.876;2022-08-04T03:16:59;156766.31;;;20.83;100.00
7309;BME280;3695;53.330;9.876;2022-08-04T03:19:57;156371.75;;;20.76;100.00
7309;BME280;3695;53.330;9.876;2022-08-04T03:25:56;156043.56;;;20.73;100.00
7309;BME280;3695;53.330;9.876;2022-08-04T03:32:11;155751.81;;;20.71;100.00
7309;BME280;3695;53.330;9.876;2022-08-04T03:35:02;156453.22;;;20.94;100.00
7309;BME280;3695;53.330;9.876;2022-08-04T03:37:43;156584.56;;;20.95;100.00
7309;BME280;3695;53.330;9.876;2022-08-04T03:43:45;156995.81;;;21.02;100.00
7309;BME280;3695;53.330;9.876;2022-08-04T03:46:40;156820.09;;;20.99;100.00
7309;BME280;3695;53.330;9.876;2022-08-04T03:49:55;156896.31;;;21.03;100.00
7309;BME280;3695;53.330;9.876;2022-08-04T03:52:48;156540.22;;;20.93;100.00
7309;BME280;3695;53.330;9.876;2022-08-04T03:55:56;156166.56;;;20.87;100.00
7309;BME280;3695;53.330;9.876;2022-08-04T03:58:48;156810.38;;;21.05;100.00
7309;BME280;3695;53.330;9.876;2022-08-04T04:04:36;157247.81;;;21.16;100.00
7309;BME280;3695;53.330;9.876;2022-08-04T04:10:32;156924.28;;;21.10;100.00
7309;BME280;3695;53.330;9.876;2022-08-04T04:13:18;157084.75;;;21.12;100.00
7309;BME280;3695;53.330;9.876;2022-08-04T04:16:06;157023.38;;;21.11;100.00
7309;BME280;3695;53.330;9.876;2022-08-04T04:18:56;156981.16;;;21.12;100.00
7309;BME280;3695;53.330;9.876;2022-08-04T04:21:34;157152.19;;;21.18;100.00
7309;BME280;3695;53.330;9.876;2022-08-04T04:24:31;157114.47;;;21.17;100.00
7309;BME280;3695;53.330;9.876;2022-08-04T04:27:07;156915.88;;;21.10;100.00
7309;BME280;3695;53.330;9.876;2022-08-04T04:29:55;157176.50;;;21.22;100.00
7309;BME280;3695;53.330;9.876;2022-08-04T04:32:34;157428.88;;;21.27;100.00
7309;BME280;3695;53.330;9.876;2022-08-04T04:35:10;157575.06;;;21.32;100.00
7309;BME280;3695;53.330;9.876;2022-08-04T04:38:06;156676.84;;;21.08;100.00
7309;BME280;3695;53.330;9.876;2022-08-04T04:40:49;156463.44;;;21.04;100.00
7309;BME280;3695;53.330;9.876;2022-08-04T04:43:33;156427.91;;;21.07;100.00
7309;BME280;3695;53.330;9.876;2022-08-04T04:46:08;156756.47;;;21.15;100.00
7309;BME280;3695;53.330;9.876;2022-08-04T04:48:44;157549.66;;;21.40;100.00
7309;BME280;3695;53.330;9.876;2022-08-04T04:51:19;158227.16;;;21.57;100.00
7309;BME280;3695;53.330;9.876;2022-08-04T04:54:00;158167.19;;;21.55;100.00
7309;BME280;3695;53.330;9.876;2022-08-04T04:56:37;158398.66;;;21.61;100.00
7309;BME280;3695;53.330;9.876;2022-08-04T04:59:09;159080.53;;;21.81;100.00
7309;BME280;3695;53.330;9.876;2022-08-04T05:01:49;159060.91;;;21.81;100.00
7309;BME280;3695;53.330;9.876;2022-08-04T05:04:32;159366.28;;;21.91;100.00
7309;BME280;3695;53.330;9.876;2022-08-04T05:07:30;159288.84;;;21.92;100.00
7309;BME280;3695;53.330;9.876;2022-08-04T05:10:06;159443.19;;;22.00;100.00
7309;BME280;3695;53.330;9.876;2022-08-04T05:12:55;159266.22;;;21.93;100.00
7309;BME280;3695;53.330;9.876;2022-08-04T05:15:26;159405.22;;;22.00;100.00
7309;BME280;3695;53.330;9.876;2022-08-04T05:17:56;159469.44;;;22.10;100.00
7309;BME280;3695;53.330;9.876;2022-08-04T05:20:27;159496.97;;;22.21;100.00
7309;BME280;3695;53.330;9.876;2022-08-04T05:22:57;159531.28;;;22.33;100.00
7309;BME280;3695;53.330;9.876;2022-08-04T05:25:27;159552.28;;;22.41;100.00
7309;BME280;3695;53.330;9.876;2022-08-04T05:28:04;159561.44;;;22.45;100.00
7309;BME280;3695;53.330;9.876;2022-08-04T05:30:34;159591.59;;;22.56;100.00
7309;BME280;3695;53.330;9.876;2022-08-04T05:33:06;159615.22;;;22.66;100.00
7309;BME280;3695;53.330;9.876;2022-08-04T05:35:40;159641.47;;;22.76;100.00
7309;BME280;3695;53.330;9.876;2022-08-04T05:38:09;159615.22;;;22.66;100.00
7309;BME280;3695;53.330;9.876;2022-08-04T05:40:38;159631.00;;;22.72;100.00
7309;BME280;3695;53.330;9.876;2022-08-04T05:43:06;159625.69;;;22.70;100.00
7309;BME280;3695;53.330;9.876;2022-08-04T05:45:33;159644.09;;;22.77;100.00
7309;BME280;3695;53.330;9.876;2022-08-04T05:48:01;159669.06;;;22.86;100.00
7309;BME280;3695;53.330;9.876;2022-08-04T05:50:28;159675.63;;;22.89;100.00
7309;BME280;3695;53.330;9.876;2022-08-04T05:52:57;159724.16;;;23.08;100.00
7309;BME280;3695;53.330;9.876;2022-08-04T05:55:25;159716.28;;;23.05;100.00
7309;BME280;3695;53.330;9.876;2022-08-04T05:57:53;159745.16;;;23.16;100.00
7309;BME280;3695;53.330;9.876;2022-08-04T06:00:22;159762.25;;;23.22;100.00
7309;BME280;3695;53.330;9.876;2022-08-04T06:02:51;159770.13;;;23.26;100.00
7309;BME280;3695;53.330;9.876;2022-08-04T06:05:18;159785.84;;;23.32;100.00
7309;BME280;3695;53.330;9.876;2022-08-04T06:07:45;159808.16;;;23.40;100.00
7309;BME280;3695;53.330;9.876;2022-08-04T06:10:13;159822.59;;;23.46;100.00
7309;BME280;3695;53.330;9.876;2022-08-04T06:12:44;159835.72;;;23.51;100.00
7309;BME280;3695;53.330;9.876;2022-08-04T06:15:16;159871.19;;;23.65;100.00
7309;BME280;3695;53.330;9.876;2022-08-04T06:17:47;159898.78;;;23.75;100.00
7309;BME280;3695;53.330;9.876;2022-08-04T06:20:16;159910.59;;;23.80;100.00
7309;BME280;3695;53.330;9.876;2022-08-04T06:22:45;159934.22;;;23.89;100.00
7309;BME280;3695;53.330;9.876;2022-08-04T06:25:16;159909.28;;;23.79;100.00
7309;BME280;3695;53.330;9.876;2022-08-04T06:27:45;159909.28;;;23.79;100.00
7309;BME280;3695;53.330;9.876;2022-08-04T06:30:14;159915.84;;;23.82;100.00
7309;BME280;3695;53.330;9.876;2022-08-04T06:32:46;159919.78;;;23.83;100.00
7309;BME280;3695;53.330;9.876;2022-08-04T06:35:20;159972.28;;;24.04;100.00
7309;BME280;3695;53.330;9.876;2022-08-04T06:37:47;160009.06;;;24.18;100.00
7309;BME280;3695;53.330;9.876;2022-08-04T06:40:15;160038.00;;;24.29;100.00
7309;BME280;3695;53.330;9.876;2022-08-04T06:42:43;160055.06;;;24.36;100.00
7309;BME280;3695;53.330;9.876;2022-08-04T06:45:11;160061.63;;;24.38;100.00
7309;BME280;3695;53.330;9.876;2022-08-04T06:47:41;160064.25;;;24.39;100.00
7309;BME280;3695;53.330;9.876;2022-08-04T06:50:10;160035.38;;;24.28;100.00
7309;BME280;3695;53.330;9.876;2022-08-04T06:52:37;160072.13;;;24.42;100.00
7309;BME280;3695;53.330;9.876;2022-08-04T06:55:05;160103.63;;;24.55;100.00
7309;BME280;3695;53.330;9.876;2022-08-04T06:57:34;160150.94;;;24.73;100.00
7309;BME280;3695;53.330;9.876;2022-08-04T07:00:04;160182.44;;;24.85;100.00
7309;BME280;3695;53.330;9.876;2022-08-04T07:02:44;160216.63;;;24.98;100.00
7309;BME280;3695;53.330;9.876;2022-08-04T07:05:13;160245.56;;;25.09;100.00
7309;BME280;3695;53.330;9.876;2022-08-04T07:07:40;160252.13;;;25.12;100.00
7309;BME280;3695;53.330;9.876;2022-08-04T07:10:08;160287.59;;;25.26;100.00
7309;BME280;3695;53.330;9.876;2022-08-04T07:12:35;160327.00;;;25.41;100.00
7309;BME280;3695;53.330;9.876;2022-08-04T07:15:02;160373.00;;;25.59;100.00
7309;BME280;3695;53.330;9.876;2022-08-04T07:17:30;160403.28;;;25.70;100.00
7309;BME280;3695;53.330;9.876;2022-08-04T07:19:57;160450.56;;;25.89;100.00
7309;BME280;3695;53.330;9.876;2022-08-04T07:22:25;160492.66;;;26.05;100.00
7309;BME280;3695;53.330;9.876;2022-08-04T07:24:53;160463.69;;;25.94;100.00
7309;BME280;3695;53.330;9.876;2022-08-04T07:27:20;160470.28;;;25.96;100.00
7309;BME280;3695;53.330;9.876;2022-08-04T07:29:47;160455.81;;;25.91;100.00
7309;BME280;3695;53.330;9.876;2022-08-04T07:32:15;160516.31;;;26.14;100.00
7309;BME280;3695;53.330;9.876;2022-08-04T07:34:42;160555.72;;;26.29;100.00
7309;BME280;3695;53.330;9.876;2022-08-04T07:37:09;160563.59;;;26.32;100.00
7309;BME280;3695;53.330;9.876;2022-08-04T07:39:36;160584.69;;;26.41;100.00
7309;BME280;3695;53.330;9.876;2022-08-04T07:42:03;160635.97;;;26.60;100.00
7309;BME280;3695;53.330;9.876;2022-08-04T07:44:33;160678.03;;;26.77;100.00
7309;BME280;3695;53.330;9.876;2022-08-04T07:47:01;160645.19;;;26.64;100.00
7309;BME280;3695;53.330;9.876;2022-08-04T07:49:28;160655.69;;;26.68;100.00
7309;BME280;3695;53.330;9.876;2022-08-04T07:51:55;160655.69;;;26.68;100.00
7309;BME280;3695;53.330;9.876;2022-08-04T07:54:22;160695.13;;;26.83;100.00
7309;BME280;3695;53.330;9.876;2022-08-04T07:56:50;160720.09;;;26.93;100.00
7309;BME280;3695;53.330;9.876;2022-08-04T07:59:18;160704.31;;;26.87;100.00
7309;BME280;3695;53.330;9.876;2022-08-04T08:01:45;160737.28;;;27.00;100.00
7309;BME280;3695;53.330;9.876;2022-08-04T08:04:12;160774.09;;;27.14;100.00
7309;BME280;3695;53.330;9.876;2022-08-04T08:06:40;160825.38;;;27.34;100.00
7309;BME280;3695;53.330;9.876;2022-08-04T08:09:08;160800.38;;;27.24;100.00
7309;BME280;3695;53.330;9.876;2022-08-04T08:11:34;160855.66;;;27.45;100.00
7309;BME280;3695;53.330;9.876;2022-08-04T08:14:03;160820.13;;;27.32;100.00
7309;BME280;3695;53.330;9.876;2022-08-04T08:16:33;160900.41;;;27.63;100.00
7309;BME280;3695;53.330;9.876;2022-08-04T08:18:59;160934.59;;;27.76;100.00
7309;BME280;3695;53.330;9.876;2022-08-04T08:21:26;160917.50;;;27.69;100.00
7309;BME280;3695;53.330;9.876;2022-08-04T08:23:52;160929.34;;;27.74;100.00
7309;BME280;3695;53.330;9.876;2022-08-04T08:26:19;161022.78;;;28.10;100.00
7309;BME280;3695;53.330;9.876;2022-08-04T08:28:46;160984.63;;;27.95;100.00
7309;BME280;3695;53.330;9.876;2022-08-04T08:31:14;161009.63;;;28.05;100.00
7309;BME280;3695;53.330;9.876;2022-08-04T08:33:40;161033.28;;;28.14;100.00
7309;BME280;3695;53.330;9.876;2022-08-04T08:36:12;161071.50;;;28.29;100.00
7309;BME280;3695;53.330;9.876;2022-08-04T08:38:48;161082.03;;;28.33;100.00
7309;BME280;3695;53.330;9.876;2022-08-04T08:41:41;161122.84;;;28.48;100.00
7309;BME280;3695;53.330;9.876;2022-08-04T08:44:29;161153.13;;;28.60;100.00
7309;BME280;3695;53.330;9.876;2022-08-04T08:47:09;161139.97;;;28.55;100.00
7309;BME280;3695;53.330;9.876;2022-08-04T08:50:22;161189.94;;;28.74;100.00
7309;BME280;3695;53.330;9.876;2022-08-04T08:53:05;161172.84;;;28.68;100.00
7309;BME280;3695;53.330;9.876;2022-08-04T08:55:47;161271.63;;;29.06;100.00
7309;BME280;3695;53.330;9.876;2022-08-04T08:58:34;161241.38;;;28.94;100.00
7309;BME280;3695;53.330;9.876;2022-08-04T09:01:11;161283.47;;;29.10;100.00
7309;BME280;3695;53.330;9.876;2022-08-04T09:03:57;161309.78;;;29.21;100.00
7309;BME280;3695;53.330;9.876;2022-08-04T09:06:39;161342.75;;;29.33;100.00
7309;BME280;3695;53.330;9.876;2022-08-04T09:09:39;161498.19;;;29.93;100.00
7309;BME280;3695;53.330;9.876;2022-08-04T09:12:11;161485.00;;;29.88;100.00
7309;BME280;3695;53.330;9.876;2022-08-04T09:14:44;161529.81;;;30.05;100.00
7309;BME280;3695;53.330;9.876;2022-08-04T09:17:19;161553.53;;;30.15;100.00
7309;BME280;3695;53.330;9.876;2022-08-04T09:19:52;161636.53;;;30.47;100.00
7309;BME280;3695;53.330;9.876;2022-08-04T09:22:27;161627.31;;;30.43;100.00
7309;BME280;3695;53.330;9.876;2022-08-04T09:24:58;161637.84;;;30.47;100.00
7309;BME280;3695;53.330;9.876;2022-08-04T09:27:32;161643.13;;;30.49;100.00
7309;BME280;3695;53.330;9.876;2022-08-04T09:30:03;161661.56;;;30.56;100.00
7309;BME280;3695;53.330;9.876;2022-08-04T09:32:35;161660.25;;;30.56;100.00
7309;BME280;3695;53.330;9.876;2022-08-04T09:35:15;161641.81;;;30.49;100.00
7309;BME280;3695;53.330;9.876;2022-08-04T09:37:47;161536.41;;;30.08;100.00
7309;BME280;3695;53.330;9.876;2022-08-04T09:40:22;161527.19;;;30.04;100.00
7309;BME280;3695;53.330;9.876;2022-08-04T09:42:58;161595.72;;;30.31;100.00
7309;BME280;3695;53.330;9.876;2022-08-04T09:45:32;161595.72;;;30.31;100.00
7309;BME280;3695;53.330;9.876;2022-08-04T09:48:06;161756.50;;;30.93;100.00
7309;BME280;3695;53.330;9.876;2022-08-04T09:50:37;161815.81;;;31.16;100.00
7309;BME280;3695;53.330;9.876;2022-08-04T09:53:12;161782.84;;;31.03;100.00
7309;BME280;3695;53.330;9.876;2022-08-04T09:55:51;161875.16;;;31.39;100.00
7309;BME280;3695;53.330;9.876;2022-08-04T09:58:38;161923.91;;;31.57;100.00
7309;BME280;3695;53.330;9.876;2022-08-04T10:01:08;161933.13;;;31.61;100.00
7309;BME280;3695;53.330;9.876;2022-08-04T10:03:38;161967.50;;;31.74;100.00
7309;BME280;3695;53.330;9.876;2022-08-04T10:06:17;162083.50;;;32.19;100.00
7309;BME280;3695;53.330;9.876;2022-08-04T10:09:11;162094.06;;;32.23;100.00
7309;BME280;3695;53.330;9.876;2022-08-04T10:11:58;162096.69;;;32.24;100.00
7309;BME280;3695;53.330;9.876;2022-08-04T10:14:37;162112.56;;;32.30;100.00
7309;BME280;3695;53.330;9.876;2022-08-04T10:17:19;162141.56;;;32.41;100.00
7309;BME280;3695;53.330;9.876;2022-08-04T10:19:52;162076.88;;;32.16;98.90
7309;BME280;3695;53.330;9.876;2022-08-04T10:22:25;162024.16;;;31.96;100.00
7309;BME280;3695;53.330;9.876;2022-08-04T10:25:02;162115.19;;;32.31;100.00
7309;BME280;3695;53.330;9.876;2022-08-04T10:27:33;162187.69;;;32.59;100.00
7309;BME280;3695;53.330;9.876;2022-08-04T10:30:05;162195.63;;;32.62;97.73
7309;BME280;3695;53.330;9.876;2022-08-04T10:32:41;162104.66;;;32.27;100.00
7309;BME280;3695;53.330;9.876;2022-08-04T10:35:10;162160.03;;;32.48;100.00
7309;BME280;3695;53.330;9.876;2022-08-04T10:37:46;162191.66;;;32.61;96.54
7309;BME280;3695;53.330;9.876;2022-08-04T10:40:18;162177.16;;;32.55;98.39
7309;BME280;3695;53.330;9.876;2022-08-04T10:43:10;162270.88;;;32.91;96.04
7309;BME280;3695;53.330;9.876;2022-08-04T10:45:39;162241.84;;;32.80;98.24
7309;BME280;3695;53.330;9.876;2022-08-04T10:48:13;162270.88;;;32.91;94.94
7309;BME280;3695;53.330;9.876;2022-08-04T10:50:44;162381.72;;;33.34;94.37
7309;BME280;3695;53.330;9.876;2022-08-04T10:53:19;162372.50;;;33.30;91.08
7309;BME280;3695;53.330;9.876;2022-08-04T10:55:51;162322.28;;;33.11;91.57
7309;BME280;3695;53.330;9.876;2022-08-04T10:58:24;162422.59;;;33.49;90.58
7309;BME280;3695;53.330;9.876;2022-08-04T11:00:55;162455.63;;;33.62;88.21
7309;BME280;3695;53.330;9.876;2022-08-04T11:03:33;162343.44;;;33.19;87.97
7309;BME280;3695;53.330;9.876;2022-08-04T11:06:03;162373.81;;;33.31;89.94
7309;BME280;3695;53.330;9.876;2022-08-04T11:08:34;162423.94;;;33.50;88.35
7309;BME280;3695;53.330;9.876;2022-08-04T11:11:08;162373.81;;;33.31;90.03
7309;BME280;3695;53.330;9.876;2022-08-04T11:13:43;162340.78;;;33.18;89.48
7309;BME280;3695;53.330;9.876;2022-08-04T11:16:16;162373.81;;;33.31;87.95
7309;BME280;3695;53.330;9.876;2022-08-04T11:18:48;162389.63;;;33.37;85.70
7309;BME280;3695;53.330;9.876;2022-08-04T11:21:20;162456.94;;;33.63;84.54
7309;BME280;3695;53.330;9.876;2022-08-04T11:24:00;162408.09;;;33.44;85.80
7309;BME280;3695;53.330;9.876;2022-08-04T11:26:34;162449.03;;;33.60;83.41
7309;BME280;3695;53.330;9.876;2022-08-04T11:29:07;162505.75;;;33.82;84.65
7309;BME280;3695;53.330;9.876;2022-08-04T11:31:39;162537.47;;;33.94;83.66
7309;BME280;3695;53.330;9.876;2022-08-04T11:34:13;162585.00;;;34.12;78.33
7309;BME280;3695;53.330;9.876;2022-08-04T11:36:45;162508.44;;;33.83;78.87
7309;BME280;3695;53.330;9.876;2022-08-04T11:39:23;162468.81;;;33.67;79.31
7309;BME280;3695;53.330;9.876;2022-08-04T11:41:52;162483.31;;;33.73;80.91
7309;BME280;3695;53.330;9.876;2022-08-04T11:44:28;162524.28;;;33.89;80.18
7309;BME280;3695;53.330;9.876;2022-08-04T11:46:58;162492.56;;;33.76;80.77
7309;BME280;3695;53.330;9.876;2022-08-04T11:49:34;162439.75;;;33.56;82.97
7309;BME280;3695;53.330;9.876;2022-08-04T11:52:06;162418.66;;;33.48;83.57
7309;BME280;3695;53.330;9.876;2022-08-04T11:54:36;162463.53;;;33.65;80.66
7309;BME280;3695;53.330;9.876;2022-08-04T11:57:04;162530.88;;;33.91;82.17
7309;BME280;3695;53.330;9.876;2022-08-04T11:59:32;162500.47;;;33.79;83.59
7309;BME280;3695;53.330;9.876;2022-08-04T12:02:22;162592.91;;;34.15;83.61
7309;BME280;3695;53.330;9.876;2022-08-04T12:04:57;162691.97;;;34.53;83.14
7309;BME280;3695;53.330;9.876;2022-08-04T12:07:38;162600.84;;;34.18;81.94
7309;BME280;3695;53.330;9.876;2022-08-04T12:10:18;162645.75;;;34.35;82.53
7309;BME280;3695;53.330;9.876;2022-08-04T12:12:54;162636.44;;;34.32;82.46
7309;BME280;3695;53.330;9.876;2022-08-04T12:15:26;162512.41;;;33.84;84.96
7309;BME280;3695;53.330;9.876;2022-08-04T12:18:03;162463.53;;;33.65;87.13
7309;BME280;3695;53.330;9.876;2022-08-04T12:20:40;162413.38;;;33.46;88.16
7309;BME280;3695;53.330;9.876;2022-08-04T12:23:14;162628.53;;;34.29;88.37
7309;BME280;3695;53.330;9.876;2022-08-04T12:25:47;162616.66;;;34.24;87.50
7309;BME280;3695;53.330;9.876;2022-08-04T12:28:17;162532.19;;;33.92;85.22
7309;BME280;3695;53.330;9.876;2022-08-04T12:30:51;162640.47;;;34.33;87.65
7309;BME280;3695;53.330;9.876;2022-08-04T12:33:26;162687.97;;;34.52;82.14
7309;BME280;3695;53.330;9.876;2022-08-04T12:35:59;162586.31;;;34.13;80.99
7309;BME280;3695;53.330;9.876;2022-08-04T12:38:31;162600.84;;;34.18;81.95
7309;BME280;3695;53.330;9.876;2022-08-04T12:41:00;162476.72;;;33.70;83.10
7309;BME280;3695;53.330;9.876;2022-08-04T12:43:34;162678.72;;;34.48;81.84
7309;BME280;3695;53.330;9.876;2022-08-04T12:46:04;162788.34;;;34.90;80.26
7309;BME280;3695;53.330;9.876;2022-08-04T12:48:33;162846.47;;;35.13;76.21
7309;BME280;3695;53.330;9.876;2022-08-04T12:51:00;162961.41;;;35.57;78.33
7309;BME280;3695;53.330;9.876;2022-08-04T12:53:30;162783.06;;;34.88;78.71
7309;BME280;3695;53.330;9.876;2022-08-04T12:55:59;162540.09;;;33.95;80.70
7309;BME280;3695;53.330;9.876;2022-08-04T12:58:28;162533.50;;;33.92;83.54
7309;BME280;3695;53.330;9.876;2022-08-04T13:00:59;162718.38;;;34.63;81.16
7309;BME280;3695;53.330;9.876;2022-08-04T13:03:29;162886.06;;;35.28;78.52
7309;BME280;3695;53.330;9.876;2022-08-04T13:06:02;162883.44;;;35.27;78.80
7309;BME280;3695;53.330;9.876;2022-08-04T13:08:35;162970.66;;;35.60;77.50
7309;BME280;3695;53.330;9.876;2022-08-04T13:11:05;162999.69;;;35.72;74.23
7309;BME280;3695;53.330;9.876;2022-08-04T13:13:35;162997.06;;;35.71;73.86
7309;BME280;3695;53.330;9.876;2022-08-04T13:16:04;163040.69;;;35.87;72.72
7309;BME280;3695;53.330;9.876;2022-08-04T13:18:33;162954.81;;;35.54;72.58
7309;BME280;3695;53.330;9.876;2022-08-04T13:21:09;163096.19;;;36.09;73.22
7309;BME280;3695;53.330;9.876;2022-08-04T13:23:37;163108.06;;;36.13;73.41
7309;BME280;3695;53.330;9.876;2022-08-04T13:26:06;163049.91;;;35.91;73.96
7309;BME280;3695;53.330;9.876;2022-08-04T13:28:33;162920.44;;;35.41;74.46
7309;BME280;3695;53.330;9.876;2022-08-04T13:31:06;162728.91;;;34.67;75.50
7309;BME280;3695;53.330;9.876;2022-08-04T13:33:35;162669.50;;;34.45;75.12
7309;BME280;3695;53.330;9.876;2022-08-04T13:36:04;162851.75;;;35.15;74.11
7309;BME280;3695;53.330;9.876;2022-08-04T13:38:34;162838.56;;;35.10;74.71
7309;BME280;3695;53.330;9.876;2022-08-04T13:41:04;162711.78;;;34.61;75.07
7309;BME280;3695;53.330;9.876;2022-08-04T13:43:39;162879.47;;;35.25;76.35
7309;BME280;3695;53.330;9.876;2022-08-04T13:46:08;163055.19;;;35.93;76.12
7309;BME280;3695;53.330;9.876;2022-08-04T13:48:40;163079.00;;;36.02;72.50
7309;BME280;3695;53.330;9.876;2022-08-04T13:51:09;163139.75;;;36.25;72.96
7309;BME280;3695;53.330;9.876;2022-08-04T13:53:37;163085.63;;;36.05;71.22
7309;BME280;3695;53.330;9.876;2022-08-04T13:56:06;163150.38;;;36.30;69.15